Time;durP1;ratioP1;P1;durP2;ratioP2;P2;SDS_P1;SDS_P2;PMS_P1;PMS_P2;Temp;Humidity;BMP_temperature;BMP_pressure;BME280_temperature;BME280_humidity;BME280_pressure;Samples;Min_cycle;Max_cycle;Signal;HPM_P1;HPM_P2
2023/01/05 00:00:01;;;;;;;1.13;0.80;;;-0.90;99.90;;;;;;5105574;28;20046;-82
2023/01/05 00:02:28;;;;;;;0.75;0.52;;;-0.90;99.90;;;;;;5111267;28;20476;-82
2023/01/05 00:04:54;;;;;;;1.77;1.17;;;-0.90;99.90;;;;;;5093789;28;20040;-81
2023/01/05 00:07:19;;;;;;;1.60;0.90;;;-0.90;99.90;;;;;;5091555;28;20054;-83
2023/01/05 00:09:45;;;;;;;1.45;1.35;;;-0.90;99.90;;;;;;5083763;28;20032;-81
2023/01/05 00:23:08;;;;;;;1.20;1.10;;;-0.90;99.90;;;;;;5111768;28;20030;-80
2023/01/05 00:25:39;;;;;;;1.20;0.95;;;-0.90;99.90;;;;;;5114220;28;20388;-81
2023/01/05 00:28:07;;;;;;;2.70;1.75;;;-0.90;99.90;;;;;;5116373;28;20097;-79
2023/01/05 00:30:44;;;;;;;0.63;0.63;;;-1.00;99.90;;;;;;5088614;28;20408;-80
2023/01/05 00:33:13;;;;;;;1.58;1.10;;;-1.00;99.90;;;;;;5086642;28;20028;-79
2023/01/05 00:35:39;;;;;;;2.33;1.17;;;-1.00;99.90;;;;;;5103638;28;20035;-81
2023/01/05 00:38:05;;;;;;;1.67;1.23;;;-1.00;99.90;;;;;;5114223;28;20502;-80
2023/01/05 00:40:33;;;;;;;3.43;0.83;;;-1.00;99.90;;;;;;5089271;28;20080;-80
2023/01/05 00:42:59;;;;;;;;;;;-0.90;99.90;;;;;;5103631;28;20032;-80
2023/01/05 00:45:25;;;;;;;4.47;1.33;;;-0.90;99.90;;;;;;5097596;28;19907;-81
2023/01/05 00:47:52;;;;;;;2.03;1.10;;;-0.90;99.90;;;;;;5099545;28;20387;-80
2023/01/05 00:50:19;;;;;;;2.45;1.30;;;-0.90;99.90;;;;;;5095390;28;20030;-80
2023/01/05 00:52:46;;;;;;;1.90;1.17;;;-0.90;99.90;;;;;;5109507;28;20081;-80
2023/01/05 00:55:12;;;;;;;2.13;1.50;;;-0.90;99.90;;;;;;5119660;27;20015;-80
2023/01/05 00:57:39;;;;;;;2.25;1.75;;;-0.90;99.90;;;;;;5114978;28;20068;-81
2023/01/05 01:00:07;;;;;;;3.40;2.15;;;-0.80;99.90;;;;;;5101261;28;20027;-80
2023/01/05 01:02:33;;;;;;;4.07;2.97;;;-0.90;99.90;;;;;;5115074;28;20152;-80
2023/01/05 01:05:02;;;;;;;3.63;2.72;;;-1.00;99.90;;;;;;5112714;28;20097;-79
2023/01/05 01:07:27;;;;;;;4.10;3.25;;;-1.10;99.90;;;;;;5109769;28;20026;-81
2023/01/05 01:09:53;;;;;;;5.03;2.75;;;-1.10;99.90;;;;;;5115329;28;20043;-79
2023/01/05 01:12:19;;;;;;;7.20;3.92;;;-1.20;99.90;;;;;;5114583;28;20032;-81
2023/01/05 01:14:48;;;;;;;3.58;2.63;;;-1.30;99.90;;;;;;5095477;28;20055;-81
2023/01/05 01:17:18;;;;;;;4.35;3.75;;;-1.30;99.90;;;;;;5079833;28;20481;-80
2023/01/05 01:19:45;;;;;;;4.75;3.35;;;-1.30;99.90;;;;;;5099336;28;20082;-79
2023/01/05 01:22:11;;;;;;;7.13;3.25;;;-1.40;99.90;;;;;;5097903;28;20024;-81
2023/01/05 01:24:37;;;;;;;6.55;3.58;;;-1.40;99.90;;;;;;5118891;28;20023;-79
2023/01/05 01:27:03;;;;;;;5.10;3.20;;;-1.40;99.90;;;;;;5114178;28;20051;-79
2023/01/05 01:29:29;;;;;;;5.30;3.17;;;-1.40;99.90;;;;;;5114471;28;20026;-80
2023/01/05 01:31:58;;;;;;;7.30;3.92;;;-1.40;99.90;;;;;;5114350;28;20513;-81
2023/01/05 01:34:24;;;;;;;6.30;4.55;;;-1.40;99.90;;;;;;5110742;28;20036;-81
2023/01/05 01:36:56;;;;;;;4.95;3.30;;;-1.40;99.90;;;;;;5093494;28;20028;-78
2023/01/05 01:39:22;;;;;;;4.85;3.75;;;-1.40;99.90;;;;;;5093658;28;20385;-81
2023/01/05 01:41:48;;;;;;;5.03;3.92;;;-1.40;99.90;;;;;;5092428;28;20028;-79
2023/01/05 01:44:51;;;;;;;5.13;3.03;;;-1.30;99.90;;;;;;5092244;28;20020;-79
2023/01/05 01:47:33;;;;;;;4.38;3.08;;;-1.30;99.90;;;;;;5093410;28;20020;-79
2023/01/05 01:50:18;;;;;;;6.75;3.88;;;-1.40;99.90;;;;;;5093626;28;20032;-80
2023/01/05 01:52:47;;;;;;;5.97;3.58;;;-1.40;99.90;;;;;;5093408;28;20043;-80
2023/01/05 01:55:13;;;;;;;5.72;3.53;;;-1.40;99.90;;;;;;5093358;28;20108;-80
2023/01/05 01:57:41;;;;;;;4.93;3.47;;;-1.40;99.90;;;;;;5079204;28;20063;-81
2023/01/05 02:00:09;;;;;;;6.45;4.35;;;-1.40;99.90;;;;;;5093224;28;20024;-79
2023/01/05 02:02:35;;;;;;;;;;;-1.40;99.90;;;;;;5092358;28;20024;-80
2023/01/05 02:05:05;;;;;;;7.10;3.97;;;-1.40;99.90;;;;;;5093141;28;19908;-79
2023/01/05 02:07:39;;;;;;;8.13;4.45;;;-1.40;99.90;;;;;;5092816;28;20016;-80
2023/01/05 02:10:05;;;;;;;6.03;3.92;;;-1.50;99.90;;;;;;5093857;28;20357;-80
2023/01/05 02:12:43;;;;;;;10.70;3.80;;;-1.50;99.90;;;;;;5093405;28;20101;-80
2023/01/05 02:15:24;;;;;;;3.88;3.10;;;-1.50;99.90;;;;;;5093249;28;20024;-80
2023/01/05 02:18:08;;;;;;;5.38;3.95;;;-1.50;99.90;;;;;;5092862;28;20115;-80
2023/01/05 02:20:57;;;;;;;6.78;4.45;;;-1.50;99.90;;;;;;5093121;28;20016;-81
2023/01/05 02:24:08;;;;;;;8.13;4.93;;;-1.50;99.90;;;;;;5091551;28;20024;-81
2023/01/05 02:27:07;;;;;;;7.13;4.55;;;-1.40;99.90;;;;;;5061587;28;20051;-80
2023/01/05 02:29:32;;;;;;;7.78;4.85;;;-1.50;99.90;;;;;;5086235;28;20504;-81
2023/01/05 02:32:21;;;;;;;6.93;4.05;;;-1.50;99.90;;;;;;5093211;28;20064;-81
2023/01/05 02:35:05;;;;;;;6.05;4.50;;;-1.50;99.90;;;;;;5092637;28;20027;-80
2023/01/05 02:37:57;;;;;;;7.32;5.03;;;-1.50;99.90;;;;;;5096071;28;20078;-80
2023/01/05 02:41:01;;;;;;;8.85;4.50;;;-1.60;99.90;;;;;;5081059;28;20031;-80
2023/01/05 02:44:04;;;;;;;7.97;5.07;;;-1.70;99.90;;;;;;5092210;28;20023;-79
2023/01/05 02:47:07;;;;;;;5.43;3.08;;;-1.80;99.90;;;;;;5091796;28;20420;-80
2023/01/05 02:49:54;;;;;;;4.18;3.10;;;-1.90;99.90;;;;;;5092651;28;20481;-80
2023/01/05 02:52:38;;;;;;;;;;;-2.00;99.90;;;;;;5079543;28;20039;-81
2023/01/05 02:55:41;;;;;;;7.85;3.75;;;-2.00;99.90;;;;;;5097358;28;19904;-79
2023/01/05 02:58:44;;;;;;;5.32;3.47;;;-2.10;99.90;;;;;;5092297;28;20020;-80
2023/01/05 03:01:47;;;;;;;5.35;3.30;;;-2.20;99.90;;;;;;5081640;28;20085;-82
2023/01/05 03:04:50;;;;;;;5.18;3.80;;;-2.20;99.90;;;;;;5079125;28;20020;-80
2023/01/05 03:07:36;;;;;;;4.43;3.00;;;-2.30;99.90;;;;;;5080336;28;20099;-80
2023/01/05 03:13:45;;;;;;;8.52;3.80;;;-2.40;99.90;;;;;;5084808;28;20116;-79
2023/01/05 03:16:48;;;;;;;5.50;3.55;;;-2.40;99.90;;;;;;5079109;28;20074;-79
2023/01/05 03:19:52;;;;;;;7.05;3.50;;;-2.40;99.90;;;;;;5090792;28;20024;-79
2023/01/05 03:35:33;;;;;;;5.65;3.08;;;-2.50;99.90;;;;;;5092245;28;20039;-79
2023/01/05 03:38:36;;;;;;;4.22;3.00;;;-2.50;99.90;;;;;;5091759;28;20095;-79
2023/01/05 03:41:22;;;;;;;6.35;3.70;;;-2.50;99.90;;;;;;5097159;28;20012;-80
2023/01/05 03:44:25;;;;;;;5.57;3.17;;;-2.50;99.90;;;;;;5105579;28;20021;-79
2023/01/05 03:47:10;;;;;;;4.80;3.10;;;-2.50;99.90;;;;;;5091706;28;20065;-81
2023/01/05 03:50:13;;;;;;;5.45;3.90;;;-2.60;99.90;;;;;;5091714;28;20055;-79
2023/01/05 03:53:16;;;;;;;9.90;4.10;;;-2.60;99.90;;;;;;5080851;28;20033;-79
2023/01/05 03:56:01;;;;;;;5.72;3.70;;;-2.50;99.90;;;;;;5076470;28;20032;-80
2023/01/05 03:58:45;;;;;;;5.57;3.40;;;-2.50;99.90;;;;;;5092054;28;20354;-79
2023/01/05 04:01:48;;;;;;;8.15;4.80;;;-2.50;99.90;;;;;;5095629;28;20020;-80
2023/01/05 04:04:33;;;;;;;6.25;3.10;;;-2.50;99.90;;;;;;5082282;28;20099;-80
2023/01/05 04:07:17;;;;;;;6.47;3.70;;;-2.50;99.90;;;;;;5097753;28;20016;-79
2023/01/05 04:10:01;;;;;;;6.07;3.50;;;-2.50;99.90;;;;;;5097401;28;20024;-79
2023/01/05 04:13:04;;;;;;;5.90;3.90;;;-2.50;99.90;;;;;;5095328;28;20023;-80
2023/01/05 04:16:07;;;;;;;5.82;3.70;;;-2.50;99.90;;;;;;5093837;28;20031;-80
2023/01/05 04:19:11;;;;;;;5.72;3.55;;;-2.60;99.90;;;;;;5088356;28;20389;-80
2023/01/05 04:22:14;;;;;;;5.60;3.88;;;-2.60;99.70;;;;;;5097556;28;20036;-80
2023/01/05 04:25:17;;;;;;;6.53;3.63;;;-2.60;99.70;;;;;;5091850;28;20469;-80
2023/01/05 04:28:20;;;;;;;6.63;3.55;;;-2.60;99.60;;;;;;5094798;28;20079;-79
2023/01/05 04:31:04;;;;;;;6.68;3.33;;;-2.60;99.50;;;;;;5094901;28;20115;-79
2023/01/05 04:34:07;;;;;;;6.70;3.20;;;-2.60;99.40;;;;;;5095571;28;20031;-80
2023/01/05 04:37:11;;;;;;;6.63;4.60;;;-2.50;99.50;;;;;;5081586;28;20431;-80
2023/01/05 04:40:13;;;;;;;7.38;4.10;;;-2.50;99.40;;;;;;5094829;28;20066;-80
2023/01/05 04:42:58;;;;;;;6.85;3.83;;;-2.50;99.30;;;;;;5094694;28;20052;-80
2023/01/05 04:46:01;;;;;;;5.82;3.78;;;-2.50;99.50;;;;;;5094687;28;20016;-80
2023/01/05 04:48:46;;;;;;;5.97;3.88;;;-2.50;99.20;;;;;;5094348;28;20081;-80
2023/01/05 04:51:30;;;;;;;9.32;3.72;;;-2.60;98.80;;;;;;5095078;28;20110;-79
2023/01/05 04:54:34;;;;;;;4.95;3.33;;;-2.70;98.60;;;;;;5095706;28;20099;-80
2023/01/05 04:57:18;;;;;;;5.13;3.40;;;-2.70;98.40;;;;;;5094583;28;20031;-80
2023/01/05 05:00:03;;;;;;;6.45;3.95;;;-2.70;98.50;;;;;;5094328;28;20477;-80
2023/01/05 05:03:06;;;;;;;9.57;4.35;;;-2.80;98.30;;;;;;5080871;28;20027;-80
2023/01/05 05:06:09;;;;;;;6.70;3.58;;;-2.80;98.30;;;;;;5093181;28;20024;-79
2023/01/05 05:09:13;;;;;;;6.10;2.92;;;-2.80;98.40;;;;;;5088870;28;20393;-80
2023/01/05 05:12:19;;;;;;;4.72;3.38;;;-2.80;98.60;;;;;;5094138;28;20540;-80
2023/01/05 05:15:04;;;;;;;4.35;2.45;;;-2.70;98.60;;;;;;5083781;28;20377;-81
2023/01/05 05:18:07;;;;;;;4.50;2.38;;;-2.80;98.00;;;;;;5094553;28;20024;-80
2023/01/05 05:21:10;;;;;;;3.97;3.17;;;-2.80;98.10;;;;;;5094233;28;20477;-80
2023/01/05 05:24:13;;;;;;;4.50;3.08;;;-2.90;98.20;;;;;;5094315;28;20032;-81
2023/01/05 05:27:16;;;;;;;5.68;2.80;;;-2.80;97.90;;;;;;5083389;28;20036;-80
2023/01/05 05:30:19;;;;;;;6.00;2.80;;;-2.90;97.80;;;;;;5080346;28;20021;-80
2023/01/05 05:33:22;;;;;;;4.50;3.17;;;-2.90;98.00;;;;;;5094283;28;20031;-80
2023/01/05 05:36:25;;;;;;;5.22;3.05;;;-2.80;98.10;;;;;;5093981;28;20487;-81
2023/01/05 05:39:28;;;;;;;6.45;3.22;;;-2.80;97.70;;;;;;5095764;28;20430;-81
2023/01/05 05:42:31;;;;;;;6.13;3.10;;;-2.80;97.80;;;;;;5084233;28;20051;-80
2023/01/05 05:45:34;;;;;;;6.13;3.97;;;-2.90;97.80;;;;;;5090927;28;20485;-80
2023/01/05 05:48:37;;;;;;;5.03;3.17;;;-2.90;98.10;;;;;;5094516;28;20524;-81
2023/01/05 05:51:22;;;;;;;5.40;3.30;;;-2.90;98.20;;;;;;5083690;28;20044;-81
2023/01/05 05:54:24;;;;;;;6.13;3.75;;;-2.90;98.00;;;;;;5101814;28;20052;-81
2023/01/05 05:57:27;;;;;;;3.88;2.92;;;-2.90;98.30;;;;;;5109231;28;20032;-79
2023/01/05 06:00:12;;;;;;;5.32;3.40;;;-2.80;98.30;;;;;;5103370;28;20019;-80
2023/01/05 06:02:57;;;;;;;4.95;3.47;;;-2.80;98.30;;;;;;5085263;28;20412;-79
2023/01/05 06:06:00;;;;;;;6.65;3.88;;;-2.80;98.00;;;;;;5089960;28;20046;-80
2023/01/05 06:09:03;;;;;;;8.10;4.25;;;-2.70;98.00;;;;;;5095423;28;20097;-80
2023/01/05 06:11:48;;;;;;;10.70;4.97;;;-2.70;98.10;;;;;;5109114;28;20111;-81
2023/01/05 06:14:51;;;;;;;7.20;4.88;;;-2.60;98.30;;;;;;5113356;28;20123;-80
2023/01/05 06:17:36;;;;;;;8.63;4.68;;;-2.60;98.30;;;;;;5079289;28;20469;-79
2023/01/05 06:20:20;;;;;;;8.32;4.18;;;-2.60;98.40;;;;;;5109685;28;20071;-80
2023/01/05 06:23:24;;;;;;;8.02;4.38;;;-2.60;98.30;;;;;;5099829;28;20031;-80
2023/01/05 06:26:08;;;;;;;5.95;4.05;;;-2.50;98.40;;;;;;5094983;28;20031;-79
2023/01/05 06:29:11;;;;;;;11.23;4.28;;;-2.50;98.50;;;;;;5096030;28;20024;-80
2023/01/05 06:32:14;;;;;;;8.38;5.00;;;-2.50;98.30;;;;;;5105857;28;20506;-79
2023/01/05 06:35:17;;;;;;;7.70;3.95;;;-2.50;98.20;;;;;;5083595;28;20103;-79
2023/01/05 06:38:02;;;;;;;8.05;4.10;;;-2.50;97.80;;;;;;5080313;28;20032;-82
2023/01/05 06:41:05;;;;;;;8.70;4.30;;;-2.60;97.80;;;;;;5092597;28;20020;-81
2023/01/05 06:44:08;;;;;;;10.18;4.90;;;-2.60;98.00;;;;;;5092494;28;20047;-81
2023/01/05 06:47:11;;;;;;;8.13;4.47;;;-2.50;98.10;;;;;;5092646;28;20016;-81
2023/01/05 06:49:56;;;;;;;7.95;4.78;;;-2.50;98.10;;;;;;5091200;28;20028;-80
2023/01/05 06:52:22;;;;;;;6.57;4.78;;;-2.40;98.00;;;;;;5079106;28;20366;-81
2023/01/05 06:55:25;;;;;;;7.35;5.13;;;-2.40;97.90;;;;;;5092423;28;20358;-80
2023/01/05 06:58:09;;;;;;;8.98;5.55;;;-2.50;97.70;;;;;;5087279;28;20024;-80
2023/01/05 07:01:12;;;;;;;9.02;5.47;;;-2.50;97.80;;;;;;5092036;28;20059;-80
2023/01/05 07:03:57;;;;;;;10.75;5.03;;;-2.50;97.50;;;;;;5092006;28;20024;-79
2023/01/05 07:07:00;;;;;;;11.85;5.65;;;-2.50;97.70;;;;;;5087907;28;20024;-80
2023/01/05 07:09:48;;;;;;;13.80;6.70;;;-2.60;97.70;;;;;;5079396;28;20024;-80
2023/01/05 07:12:51;;;;;;;17.60;8.48;;;-2.70;97.60;;;;;;5091945;28;20469;-80
2023/01/05 07:15:54;;;;;;;8.50;6.53;;;-2.80;98.10;;;;;;5092214;28;20346;-80
2023/01/05 07:18:57;;;;;;;7.60;5.72;;;-2.80;98.10;;;;;;5082990;28;20027;-81
2023/01/05 07:22:00;;;;;;;8.95;5.45;;;-2.80;97.90;;;;;;5079798;28;20110;-81
2023/01/05 07:25:03;;;;;;;8.40;4.90;;;-2.90;98.40;;;;;;5093698;28;20020;-80
2023/01/05 07:27:53;;;;;;;9.65;5.95;;;-3.00;98.20;;;;;;5095900;28;20052;-81
2023/01/05 07:30:19;;;;;;;9.68;4.90;;;-3.10;97.80;;;;;;5092659;28;20028;-79
2023/01/05 07:33:22;;;;;;;7.53;3.58;;;-3.10;98.10;;;;;;5092287;28;20024;-80
2023/01/05 07:36:25;;;;;;;7.28;4.68;;;-3.20;98.60;;;;;;5098419;28;20031;-80
2023/01/05 07:39:28;;;;;;;9.73;4.80;;;-3.20;99.30;;;;;;5098645;28;20031;-80
2023/01/05 07:42:31;;;;;;;8.23;4.97;;;-3.10;99.70;;;;;;5087620;28;20035;-81
2023/01/05 07:45:34;;;;;;;6.25;4.53;;;-3.00;99.40;;;;;;5097279;28;20058;-82
2023/01/05 07:48:20;;;;;;;7.57;4.50;;;-2.90;99.10;;;;;;5099139;28;20454;-81
2023/01/05 07:51:23;;;;;;;8.00;4.32;;;-2.90;99.00;;;;;;5086466;28;20062;-80
2023/01/05 07:54:26;;;;;;;7.45;4.88;;;-2.90;98.70;;;;;;5102077;28;20012;-81
2023/01/05 07:57:29;;;;;;;11.77;4.70;;;-2.90;98.50;;;;;;5098384;28;20024;-81
2023/01/05 08:00:32;;;;;;;9.52;5.20;;;-2.90;98.90;;;;;;5103103;28;20889;-80
2023/01/05 08:03:17;;;;;;;7.63;4.80;;;-2.90;99.10;;;;;;5101060;28;20024;-79
2023/01/05 08:06:20;;;;;;;7.50;4.88;;;-2.90;98.90;;;;;;5094369;28;20100;-79
2023/01/05 08:10:27;;;;;;;9.60;5.15;;;-2.90;98.80;;;;;;5093832;28;20039;-82
2023/01/05 08:11:50;;;;;;;10.88;5.63;;;-2.80;98.70;;;;;;5097858;28;20032;-80
2023/01/05 08:14:35;;;;;;;9.57;4.97;;;-2.80;98.40;;;;;;5098266;28;20076;-79
2023/01/05 08:17:39;;;;;;;14.95;7.10;;;-2.70;98.50;;;;;;5097982;28;20065;-82
2023/01/05 08:20:43;;;;;;;7.32;4.50;;;-2.70;98.50;;;;;;5106029;28;20016;-81
2023/01/05 08:23:46;;;;;;;13.65;5.28;;;-2.60;98.50;;;;;;5102587;28;20084;-82
2023/01/05 08:26:50;;;;;;;7.50;4.28;;;-2.60;98.00;;;;;;5118194;28;20412;-80
2023/01/05 08:29:53;;;;;;;8.95;5.00;;;-2.60;98.60;;;;;;5118743;27;20070;-82
2023/01/05 08:32:18;;;;;;;9.48;5.25;;;-2.70;99.00;;;;;;5087152;28;20119;-82
2023/01/05 08:35:21;;;;;;;9.82;5.18;;;-2.70;98.80;;;;;;5115971;28;20447;-82
2023/01/05 08:38:06;;;;;;;11.05;4.97;;;-2.70;98.30;;;;;;5118865;28;20097;-80
2023/01/05 08:41:09;;;;;;;9.18;5.18;;;-2.70;98.50;;;;;;5085001;28;20012;-81
2023/01/05 08:44:12;;;;;;;9.15;5.38;;;-2.70;98.70;;;;;;5097323;28;20020;-80
2023/01/05 08:46:56;;;;;;;8.85;5.65;;;-2.60;98.20;;;;;;5094971;28;20028;-81
2023/01/05 08:49:41;;;;;;;9.40;4.85;;;-2.60;98.50;;;;;;5095322;28;20119;-79
2023/01/05 08:52:07;;;;;;;8.27;4.93;;;-2.60;98.50;;;;;;5095000;28;20036;-81
2023/01/05 08:55:11;;;;;;;9.43;5.28;;;-2.50;98.50;;;;;;5095524;28;20016;-80
2023/01/05 08:57:58;;;;;;;7.50;3.72;;;-2.50;98.30;;;;;;5081694;28;20050;-79
2023/01/05 09:01:01;;;;;;;12.05;6.00;;;-2.60;98.80;;;;;;5091721;28;20020;-79
2023/01/05 09:04:07;;;;;;;6.28;4.60;;;-2.70;98.80;;;;;;5094466;28;20024;-81
2023/01/05 09:06:57;;;;;;;10.48;6.40;;;-2.90;98.50;;;;;;5085037;28;20139;-81
2023/01/05 09:10:00;;;;;;;9.13;5.40;;;-2.90;98.20;;;;;;5079746;28;20055;-81
2023/01/05 09:13:03;;;;;;;9.93;4.97;;;-2.90;98.30;;;;;;5094275;28;20032;-81
2023/01/05 09:16:06;;;;;;;9.50;5.78;;;-2.90;98.70;;;;;;5095725;28;20027;-80
2023/01/05 09:18:51;;;;;;;10.05;6.13;;;-2.90;98.50;;;;;;5107290;28;20437;-80
2023/01/05 09:21:17;;;;;;;8.02;4.75;;;-3.00;98.20;;;;;;5108120;28;20345;-80
2023/01/05 09:23:44;;;;;;;8.60;5.10;;;-3.10;98.70;;;;;;5111783;28;20103;-89
2023/01/05 09:26:33;;;;;;;11.20;5.78;;;-3.20;99.30;;;;;;5095005;28;20032;-82
2023/01/05 09:29:17;;;;;;;8.60;5.53;;;-3.20;99.50;;;;;;5094625;28;20023;-80
2023/01/05 09:32:22;;;;;;;11.02;5.85;;;-3.20;99.00;;;;;;5093973;28;20036;-80
2023/01/05 09:35:25;;;;;;;9.20;6.25;;;-3.20;99.20;;;;;;5110611;28;20053;-80
2023/01/05 09:38:29;;;;;;;12.20;4.93;;;-3.30;99.40;;;;;;5101389;28;20031;-82
2023/01/05 09:41:32;;;;;;;9.27;5.80;;;-3.30;98.60;;;;;;5081415;28;20024;-81
2023/01/05 09:44:38;;;;;;;10.95;6.22;;;-3.40;98.00;;;;;;5093595;28;20420;-80
2023/01/05 09:47:40;;;;;;;8.43;6.43;;;-3.50;98.10;;;;;;5103440;28;20026;-81
2023/01/05 09:50:44;;;;;;;10.63;6.95;;;-3.60;98.30;;;;;;5111495;28;20066;-81
2023/01/05 09:53:30;;;;;;;12.70;7.18;;;-3.60;98.90;;;;;;5103800;28;20120;-81
2023/01/05 09:56:15;;;;;;;10.40;6.43;;;-3.60;99.10;;;;;;5093771;28;20028;-82
2023/01/05 09:59:19;;;;;;;10.32;5.53;;;-3.70;99.40;;;;;;5097418;28;20034;-80
2023/01/05 10:02:22;;;;;;;14.27;7.20;;;-3.60;99.90;;;;;;5096999;28;20373;-81
2023/01/05 10:05:25;;;;;;;11.68;7.82;;;-3.60;99.20;;;;;;5118654;28;20046;-80
2023/01/05 10:08:28;;;;;;;10.10;5.50;;;-3.70;98.90;;;;;;5092293;28;20016;-82
2023/01/05 10:14:38;;;;;;;9.68;6.70;;;-3.70;99.50;;;;;;5081889;28;20062;-82
2023/01/05 10:17:22;;;;;;;8.57;5.55;;;-3.80;99.70;;;;;;5086934;28;20074;-81
2023/01/05 10:20:07;;;;;;;12.55;6.57;;;-3.80;99.00;;;;;;5094053;28;20118;-81
2023/01/05 10:23:10;;;;;;;10.80;6.10;;;-3.90;98.50;;;;;;5086804;28;20435;-80
2023/01/05 10:26:13;;;;;;;10.32;6.25;;;-3.90;98.40;;;;;;5081381;28;20474;-80
2023/01/05 10:29:16;;;;;;;16.85;9.35;;;-3.90;97.40;;;;;;5055158;28;20036;-80
2023/01/05 10:32:19;;;;;;;12.02;6.68;;;-4.00;97.50;;;;;;5049556;28;20033;-81
2023/01/05 10:35:10;;;;;;;7.28;5.05;;;-4.00;97.30;;;;;;5052575;28;20107;-81
2023/01/05 10:38:13;;;;;;;8.77;5.13;;;-4.00;97.60;;;;;;5052085;28;20019;-82
2023/01/05 10:41:17;;;;;;;15.48;6.15;;;-4.00;97.50;;;;;;5039182;28;20036;-84
2023/01/05 10:44:19;;;;;;;9.75;4.47;;;-3.90;97.60;;;;;;5047933;28;20096;-79
2023/01/05 10:47:23;;;;;;;7.18;2.97;;;-4.10;96.80;;;;;;5050782;28;20036;-80
2023/01/05 10:50:26;;;;;;;7.82;5.03;;;-4.30;97.20;;;;;;5044617;28;20031;-78
2023/01/05 10:53:29;;;;;;;10.02;4.80;;;-4.50;97.80;;;;;;5043664;28;20055;-78
2023/01/05 10:56:32;;;;;;;5.25;3.53;;;-4.60;97.60;;;;;;5040552;28;20487;-79
2023/01/05 10:59:16;;;;;;;9.45;5.25;;;-4.60;97.70;;;;;;5047263;28;20482;-79
2023/01/05 11:02:02;;;;;;;8.50;6.00;;;-4.60;97.60;;;;;;5052126;28;20028;-80
2023/01/05 11:05:05;;;;;;;9.60;6.22;;;-4.60;97.80;;;;;;5052574;28;20048;-82
2023/01/05 11:08:08;;;;;;;9.02;4.93;;;-4.50;97.70;;;;;;5046352;28;20103;-80
2023/01/05 11:10:55;;;;;;;12.93;5.47;;;-4.40;97.80;;;;;;5063205;28;20025;-81
2023/01/05 11:13:45;;;;;;;10.10;4.97;;;-4.30;97.40;;;;;;5060200;28;20025;-80
2023/01/05 11:16:33;;;;;;;10.27;4.65;;;-4.20;97.10;;;;;;5055538;28;20032;-80
2023/01/05 11:19:36;;;;;;;6.97;5.65;;;-4.20;97.00;;;;;;5046071;28;20052;-82
2023/01/05 11:22:21;;;;;;;8.55;4.22;;;-4.10;96.90;;;;;;5044282;28;20029;-82
2023/01/05 11:25:13;;;;;;;8.57;5.80;;;-4.10;96.90;;;;;;5050121;28;20017;-82
2023/01/05 11:28:16;;;;;;;7.22;4.30;;;-4.10;96.40;;;;;;5071751;28;20037;-81
2023/01/05 11:31:19;;;;;;;11.48;5.32;;;-4.10;96.20;;;;;;5092841;28;20059;-83
2023/01/05 11:34:23;;;;;;;10.93;6.22;;;-4.00;96.10;;;;;;5093952;28;20483;-79
2023/01/05 11:37:10;;;;;;;10.82;5.78;;;-4.10;95.20;;;;;;5084152;28;20016;-81
2023/01/05 11:40:13;;;;;;;11.85;5.60;;;-4.20;95.20;;;;;;5089178;28;20020;-79
2023/01/05 11:42:58;;;;;;;8.88;5.00;;;-4.10;95.30;;;;;;5091883;28;20025;-80
2023/01/05 11:45:28;;;;;;;12.00;5.50;;;-4.10;95.20;;;;;;5092064;28;20142;-82
2023/01/05 11:48:31;;;;;;;9.93;5.25;;;-4.20;95.10;;;;;;5092181;28;20081;-80
2023/01/05 11:51:34;;;;;;;11.73;5.55;;;-4.30;95.40;;;;;;5088067;28;20067;-81
2023/01/05 11:54:39;;;;;;;11.13;5.38;;;-4.30;95.00;;;;;;5078516;28;20540;-81
2023/01/05 11:57:42;;;;;;;10.38;5.38;;;-4.20;95.00;;;;;;5092901;28;20453;-79
2023/01/05 12:00:30;;;;;;;8.23;4.55;;;-4.30;94.50;;;;;;5091126;28;20028;-80
2023/01/05 12:03:34;;;;;;;10.13;5.57;;;-4.30;94.50;;;;;;5103029;28;20368;-78
2023/01/05 12:06:22;;;;;;;7.65;5.20;;;-4.40;94.30;;;;;;5083684;28;20031;-78
2023/01/05 12:09:12;;;;;;;8.20;4.75;;;-4.60;94.40;;;;;;5087423;28;20028;-79
2023/01/05 12:12:15;;;;;;;7.13;3.50;;;-4.70;94.60;;;;;;5088946;28;20036;-81
2023/01/05 12:15:18;;;;;;;10.60;4.63;;;-4.70;95.50;;;;;;5081222;28;20036;-77
2023/01/05 12:18:21;;;;;;;11.93;4.25;;;-4.70;95.50;;;;;;5085872;28;20049;-80
2023/01/05 12:21:09;;;;;;;11.43;5.85;;;-4.80;95.20;;;;;;5090583;28;20552;-79
2023/01/05 12:24:12;;;;;;;6.82;4.57;;;-4.90;94.90;;;;;;5097250;28;20028;-79
2023/01/05 12:27:09;;;;;;;8.18;5.38;;;-4.90;95.40;;;;;;5086358;28;20044;-79
2023/01/05 12:29:53;;;;;;;;;;;-5.00;95.50;;;;;;5095201;28;20051;-79
2023/01/05 12:32:44;;;;;;;6.82;4.80;;;-5.20;95.30;;;;;;5085027;28;20438;-77
2023/01/05 12:35:44;;;;;;;11.70;5.97;;;-5.30;95.40;;;;;;5102069;28;20035;-78
2023/01/05 12:38:34;;;;;;;9.60;6.13;;;-5.40;95.50;;;;;;5087641;28;20054;-77
2023/01/05 12:41:37;;;;;;;12.30;5.82;;;-5.40;95.60;;;;;;5103068;28;20024;-78
2023/01/05 12:44:24;;;;;;;14.52;6.63;;;-5.50;95.50;;;;;;5086863;28;20036;-78
2023/01/05 12:47:38;;;;;;;8.15;4.75;;;-5.50;95.40;;;;;;5094599;28;20060;-78
2023/01/05 12:50:25;;;;;;;8.52;5.97;;;-5.60;95.40;;;;;;5011991;28;20431;-78
2023/01/05 12:53:28;;;;;;;10.63;5.68;;;-5.70;95.40;;;;;;5012472;28;20127;-79
2023/01/05 12:55:56;;;;;;;10.32;6.10;;;-5.70;95.30;;;;;;5022910;28;20038;-80
2023/01/05 12:58:27;;;;;;;10.27;7.68;;;-5.80;95.30;;;;;;4995416;28;20022;-79
2023/01/05 13:00:56;;;;;;;8.32;4.43;;;-5.80;95.40;;;;;;5022870;28;20109;-77
2023/01/05 13:03:33;;;;;;;15.38;6.68;;;-5.90;95.50;;;;;;5014876;28;20103;-79
2023/01/05 13:06:15;;;;;;;13.32;5.90;;;-5.90;95.50;;;;;;5012078;28;20037;-79
2023/01/05 13:08:55;;;;;;;13.65;5.85;;;-5.90;95.60;;;;;;5015566;28;20455;-78
2023/01/05 13:11:44;;;;;;;9.40;5.88;;;-6.00;95.70;;;;;;5011499;28;20033;-77
2023/01/05 13:14:10;;;;;;;10.38;6.82;;;-5.90;95.90;;;;;;5010406;28;20136;-79
2023/01/05 13:16:39;;;;;;;10.60;6.22;;;-6.00;95.80;;;;;;4999150;28;20129;-80
2023/01/05 13:19:18;;;;;;;13.20;4.97;;;-6.00;95.60;;;;;;5015732;28;20026;-81
2023/01/05 13:21:51;;;;;;;11.10;4.70;;;-6.00;95.70;;;;;;5017238;28;20048;-78
2023/01/05 13:25:04;;;;;;;8.93;6.72;;;-6.10;95.60;;;;;;5012027;28;20428;-82
2023/01/05 13:27:31;;;;;;;12.23;6.57;;;-6.10;95.60;;;;;;5087786;28;20098;-79
2023/01/05 13:29:59;;;;;;;11.77;6.03;;;-6.10;95.70;;;;;;5093749;28;20108;-82
2023/01/05 13:33:02;;;;;;;10.20;6.00;;;-6.10;95.80;;;;;;5093671;28;20888;-78
2023/01/05 13:35:40;;;;;;;12.73;7.72;;;-6.10;95.60;;;;;;5086270;28;20219;-80
2023/01/05 13:38:43;;;;;;;9.63;5.88;;;-6.20;95.60;;;;;;5089923;28;20035;-81
2023/01/05 13:41:34;;;;;;;9.43;5.72;;;-6.30;95.70;;;;;;5090272;28;20052;-81
2023/01/05 13:44:06;;;;;;;9.80;5.72;;;-6.30;95.90;;;;;;5085442;28;20452;-83
2023/01/05 13:46:44;;;;;;;8.60;5.28;;;-6.30;95.90;;;;;;5093532;28;20122;-81
2023/01/05 13:49:31;;;;;;;8.35;4.85;;;-6.40;95.90;;;;;;5094223;28;20107;-83
2023/01/05 13:52:02;;;;;;;11.65;6.35;;;-6.40;95.70;;;;;;5093584;28;20111;-80
2023/01/05 13:54:34;;;;;;;9.57;4.50;;;-6.50;95.30;;;;;;5092670;28;20030;-79
2023/01/05 13:57:11;;;;;;;6.63;4.80;;;-6.50;95.10;;;;;;5092334;28;20027;-79
2023/01/05 13:59:37;;;;;;;;;;;-6.60;95.20;;;;;;5091445;28;20028;-84
2023/01/05 14:02:25;;;;;;;11.18;7.15;;;-6.60;95.20;;;;;;5094838;28;19904;-82
2023/01/05 14:04:52;;;;;;;12.10;5.25;;;-6.60;95.30;;;;;;5093605;28;20054;-81
2023/01/05 14:07:18;;;;;;;7.07;4.97;;;-6.70;95.40;;;;;;5100694;28;20020;-80
2023/01/05 14:09:51;;;;;;;12.33;6.73;;;-6.70;95.70;;;;;;5093283;28;20099;-82
2023/01/05 14:12:20;;;;;;;14.80;5.50;;;-6.70;95.90;;;;;;5099048;28;20040;-80
2023/01/05 14:15:26;;;;;;;8.98;4.75;;;-6.70;95.90;;;;;;5091081;28;20518;-80
2023/01/05 14:17:52;;;;;;;8.63;5.25;;;-6.70;96.10;;;;;;5091435;28;20047;-77
2023/01/05 14:20:35;;;;;;;8.88;4.50;;;-6.60;96.00;;;;;;5085759;28;20048;-79
2023/01/05 14:23:28;;;;;;;10.82;6.40;;;-6.70;95.80;;;;;;5090368;28;20019;-80
2023/01/05 14:26:09;;;;;;;9.10;5.35;;;-6.70;95.60;;;;;;5079657;28;20024;-80
2023/01/05 14:28:43;;;;;;;12.48;7.35;;;-6.70;95.60;;;;;;5084706;28;20024;-79
2023/01/05 14:31:17;;;;;;;10.60;4.97;;;-6.70;95.60;;;;;;5080567;28;20024;-79
2023/01/05 14:34:06;;;;;;;15.32;7.13;;;-6.70;95.80;;;;;;5093015;28;20024;-80
2023/01/05 14:36:57;;;;;;;10.73;5.38;;;-6.70;95.90;;;;;;5089901;28;20016;-79
2023/01/05 14:39:37;;;;;;;6.82;4.53;;;-6.80;95.80;;;;;;5092464;28;20023;-82
2023/01/05 14:42:22;;;;;;;8.07;6.07;;;-6.80;95.70;;;;;;5083170;28;20020;-79
2023/01/05 14:44:50;;;;;;;9.60;5.18;;;-6.80;95.80;;;;;;5091338;28;20039;-80
2023/01/05 14:47:30;;;;;;;10.70;5.63;;;-6.70;95.40;;;;;;5092807;28;20016;-82
2023/01/05 14:50:02;;;;;;;10.27;4.97;;;-6.70;95.30;;;;;;5096255;28;20453;-80
2023/01/05 14:53:11;;;;;;;12.98;5.38;;;-6.60;95.00;;;;;;5092151;28;20040;-80
2023/01/05 14:56:02;;;;;;;12.15;5.90;;;-6.70;94.80;;;;;;5094319;28;20130;-81
2023/01/05 14:59:00;;;;;;;8.30;5.65;;;-6.70;94.80;;;;;;5097607;28;20020;-81
2023/01/05 15:01:46;;;;;;;5.72;4.45;;;-6.70;95.00;;;;;;5099839;28;20024;-81
2023/01/05 15:04:34;;;;;;;8.43;6.32;;;-6.80;94.90;;;;;;5088114;28;20024;-81
2023/01/05 15:07:12;;;;;;;12.68;7.57;;;-6.80;95.00;;;;;;5095806;28;20380;-81